sensor_id;sensor_type;location;lat;lon;timestamp;pressure;altitude;pressure_sealevel;temperature;humidity
5812;BME280;2932;52.400;9.558;2023-02-19T00:01:19;100798.44;;;12.67;81.03
5812;BME280;2932;52.400;9.558;2023-02-19T00:03:50;100793.09;;;12.30;80.29
5812;BME280;2932;52.400;9.558;2023-02-19T00:06:17;100791.63;;;12.21;79.55
5812;BME280;2932;52.400;9.558;2023-02-19T00:08:42;100779.97;;;12.15;80.04
5812;BME280;2932;52.400;9.558;2023-02-19T00:11:13;100773.06;;;12.09;80.62
5812;BME280;2932;52.400;9.558;2023-02-19T00:13:44;100763.44;;;11.91;81.38
5812;BME280;2932;52.400;9.558;2023-02-19T00:16:13;100757.81;;;12.03;81.30
5812;BME280;2932;52.400;9.558;2023-02-19T00:18:40;100756.53;;;12.13;80.99
5812;BME280;2932;52.400;9.558;2023-02-19T00:21:05;100764.28;;;12.07;81.56
5812;BME280;2932;52.400;9.558;2023-02-19T00:23:31;100764.09;;;12.28;80.85
5812;BME280;2932;52.400;9.558;2023-02-19T00:26:01;100761.84;;;12.06;81.35
5812;BME280;2932;52.400;9.558;2023-02-19T00:28:26;100769.22;;;12.14;81.69
5812;BME280;2932;52.400;9.558;2023-02-19T00:30:51;100763.69;;;12.14;82.20
5812;BME280;2932;52.400;9.558;2023-02-19T00:33:17;100758.66;;;12.31;81.76
5812;BME280;2932;52.400;9.558;2023-02-19T00:35:42;100753.41;;;12.14;81.99
5812;BME280;2932;52.400;9.558;2023-02-19T00:38:08;100738.41;;;12.03;83.22
5812;BME280;2932;52.400;9.558;2023-02-19T00:40:33;100719.59;;;12.24;83.50
5812;BME280;2932;52.400;9.558;2023-02-19T00:42:58;100729.47;;;12.38;83.73
5812;BME280;2932;52.400;9.558;2023-02-19T00:45:24;100719.00;;;11.63;85.75
5812;BME280;2932;52.400;9.558;2023-02-19T00:47:49;100712.63;;;11.75;87.18
5812;BME280;2932;52.400;9.558;2023-02-19T00:50:14;100713.72;;;11.98;85.99
5812;BME280;2932;52.400;9.558;2023-02-19T00:52:40;100710.97;;;12.14;85.34
5812;BME280;2932;52.400;9.558;2023-02-19T00:55:05;100717.03;;;12.03;85.37
5812;BME280;2932;52.400;9.558;2023-02-19T00:57:31;100711.59;;;12.07;85.27
5812;BME280;2932;52.400;9.558;2023-02-19T00:59:56;100718.50;;;11.85;86.05
5812;BME280;2932;52.400;9.558;2023-02-19T01:02:21;100717.81;;;11.88;86.29
5812;BME280;2932;52.400;9.558;2023-02-19T01:04:47;100723.59;;;12.11;85.74
5812;BME280;2932;52.400;9.558;2023-02-19T01:07:12;100725.00;;;12.05;86.39
5812;BME280;2932;52.400;9.558;2023-02-19T01:09:38;100721.56;;;12.24;85.22
5812;BME280;2932;52.400;9.558;2023-02-19T01:12:04;100732.41;;;12.01;85.32
5812;BME280;2932;52.400;9.558;2023-02-19T01:14:29;100747.53;;;12.03;86.07
5812;BME280;2932;52.400;9.558;2023-02-19T01:16:55;100756.75;;;11.67;86.72
5812;BME280;2932;52.400;9.558;2023-02-19T01:19:20;100753.34;;;11.58;87.41
5812;BME280;2932;52.400;9.558;2023-02-19T01:21:45;100747.13;;;11.37;88.54
5812;BME280;2932;52.400;9.558;2023-02-19T01:24:11;100742.38;;;11.38;87.89
5812;BME280;2932;52.400;9.558;2023-02-19T01:26:36;100729.38;;;11.01;87.26
5812;BME280;2932;52.400;9.558;2023-02-19T01:29:02;100732.34;;;11.21;86.30
5812;BME280;2932;52.400;9.558;2023-02-19T01:31:28;100723.72;;;11.10;86.03
5812;BME280;2932;52.400;9.558;2023-02-19T01:33:59;100728.91;;;11.12;85.62
5812;BME280;2932;52.400;9.558;2023-02-19T01:36:26;100717.38;;;10.85;85.56
5812;BME280;2932;52.400;9.558;2023-02-19T01:38:51;100732.03;;;10.74;85.88
5812;BME280;2932;52.400;9.558;2023-02-19T01:41:20;100714.84;;;10.68;86.12
5812;BME280;2932;52.400;9.558;2023-02-19T01:46:47;100709.50;;;10.51;86.52
5812;BME280;2932;52.400;9.558;2023-02-19T01:49:37;100725.16;;;10.47;86.81
5812;BME280;2932;52.400;9.558;2023-02-19T01:52:15;100690.97;;;10.63;85.68
5812;BME280;2932;52.400;9.558;2023-02-19T01:54:43;100701.00;;;10.56;86.01
5812;BME280;2932;52.400;9.558;2023-02-19T01:57:16;100701.09;;;10.59;85.75
5812;BME280;2932;52.400;9.558;2023-02-19T01:59:44;100696.97;;;10.65;85.42
5812;BME280;2932;52.400;9.558;2023-02-19T02:02:11;100692.94;;;10.75;84.95
5812;BME280;2932;52.400;9.558;2023-02-19T02:04:36;100696.38;;;10.84;85.33
5812;BME280;2932;52.400;9.558;2023-02-19T02:07:03;100705.63;;;10.64;85.86
5812;BME280;2932;52.400;9.558;2023-02-19T02:09:50;100696.47;;;10.51;86.52
5812;BME280;2932;52.400;9.558;2023-02-19T02:12:34;100694.97;;;10.42;87.12
5812;BME280;2932;52.400;9.558;2023-02-19T02:14:59;100704.22;;;10.58;87.53
5812;BME280;2932;52.400;9.558;2023-02-19T02:17:28;100693.75;;;10.76;86.86
5812;BME280;2932;52.400;9.558;2023-02-19T02:22:37;100683.81;;;10.62;87.48
5812;BME280;2932;52.400;9.558;2023-02-19T02:30:49;100681.03;;;10.87;87.32
5812;BME280;2932;52.400;9.558;2023-02-19T02:33:27;100691.09;;;10.91;88.26
5812;BME280;2932;52.400;9.558;2023-02-19T02:36:04;100691.31;;;11.11;87.93
5812;BME280;2932;52.400;9.558;2023-02-19T02:38:32;100694.66;;;11.04;88.13
5812;BME280;2932;52.400;9.558;2023-02-19T02:40:59;100692.13;;;10.99;88.43
5812;BME280;2932;52.400;9.558;2023-02-19T02:43:26;100686.69;;;11.02;88.45
5812;BME280;2932;52.400;9.558;2023-02-19T02:45:51;100685.53;;;10.91;89.47
5812;BME280;2932;52.400;9.558;2023-02-19T02:56:08;100678.28;;;10.87;90.41
5812;BME280;2932;52.400;9.558;2023-02-19T02:58:35;100675.84;;;10.85;91.05
5812;BME280;2932;52.400;9.558;2023-02-19T03:01:21;100678.97;;;10.96;90.39
5812;BME280;2932;52.400;9.558;2023-02-19T03:04:14;100687.47;;;11.27;89.66
5812;BME280;2932;52.400;9.558;2023-02-19T03:06:41;100678.22;;;11.23;89.29
5812;BME280;2932;52.400;9.558;2023-02-19T03:09:12;100688.72;;;11.30;89.07
5812;BME280;2932;52.400;9.558;2023-02-19T03:11:42;100680.19;;;11.35;88.75
5812;BME280;2932;52.400;9.558;2023-02-19T03:14:37;100722.63;;;11.51;88.10
5812;BME280;2932;52.400;9.558;2023-02-19T03:17:37;100717.28;;;12.26;85.16
5812;BME280;2932;52.400;9.558;2023-02-19T03:20:23;100724.66;;;12.07;82.14
5812;BME280;2932;52.400;9.558;2023-02-19T03:22:50;100728.66;;;11.93;80.55
5812;BME280;2932;52.400;9.558;2023-02-19T03:25:27;100729.59;;;11.85;80.30
5812;BME280;2932;52.400;9.558;2023-02-19T03:28:14;100726.97;;;11.77;79.39
5812;BME280;2932;52.400;9.558;2023-02-19T03:30:46;100731.69;;;11.76;78.75
5812;BME280;2932;52.400;9.558;2023-02-19T03:33:15;100736.16;;;11.93;77.83
5812;BME280;2932;52.400;9.558;2023-02-19T03:36:01;100728.59;;;11.78;77.01
5812;BME280;2932;52.400;9.558;2023-02-19T03:38:42;100741.16;;;11.87;76.71
5812;BME280;2932;52.400;9.558;2023-02-19T03:44:11;100744.31;;;12.01;76.21
5812;BME280;2932;52.400;9.558;2023-02-19T03:46:58;100751.78;;;11.85;75.93
5812;BME280;2932;52.400;9.558;2023-02-19T03:49:53;100748.19;;;11.85;76.06
5812;BME280;2932;52.400;9.558;2023-02-19T03:52:40;100756.13;;;11.98;75.69
5812;BME280;2932;52.400;9.558;2023-02-19T03:55:11;100763.22;;;12.12;75.77
5812;BME280;2932;52.400;9.558;2023-02-19T04:00:16;100771.28;;;11.89;75.41
5812;BME280;2932;52.400;9.558;2023-02-19T04:05:59;100789.31;;;11.70;75.42
5812;BME280;2932;52.400;9.558;2023-02-19T04:08:26;100784.69;;;11.62;75.39
5812;BME280;2932;52.400;9.558;2023-02-19T04:10:53;100793.94;;;11.66;75.71
5812;BME280;2932;52.400;9.558;2023-02-19T04:13:25;100798.44;;;11.83;75.63
5812;BME280;2932;52.400;9.558;2023-02-19T04:15:55;100813.22;;;11.99;75.04
5812;BME280;2932;52.400;9.558;2023-02-19T04:18:26;100815.25;;;12.02;74.63
5812;BME280;2932;52.400;9.558;2023-02-19T04:20:54;100814.06;;;12.16;74.22
5812;BME280;2932;52.400;9.558;2023-02-19T04:23:23;100814.88;;;12.16;74.11
5812;BME280;2932;52.400;9.558;2023-02-19T04:25:53;100829.69;;;12.08;74.03
5812;BME280;2932;52.400;9.558;2023-02-19T04:28:20;100835.75;;;11.98;73.86
5812;BME280;2932;52.400;9.558;2023-02-19T04:30:45;100833.91;;;11.78;73.91
5812;BME280;2932;52.400;9.558;2023-02-19T04:33:11;100843.63;;;11.84;74.13
5812;BME280;2932;52.400;9.558;2023-02-19T04:35:36;100832.41;;;11.80;74.04
5812;BME280;2932;52.400;9.558;2023-02-19T04:38:02;100835.06;;;11.89;73.95
5812;BME280;2932;52.400;9.558;2023-02-19T04:40:27;100837.47;;;11.90;74.25
5812;BME280;2932;52.400;9.558;2023-02-19T04:42:52;100854.69;;;11.84;73.86
5812;BME280;2932;52.400;9.558;2023-02-19T04:45:18;100868.44;;;11.92;74.22
5812;BME280;2932;52.400;9.558;2023-02-19T04:47:43;100873.41;;;11.99;73.93
5812;BME280;2932;52.400;9.558;2023-02-19T04:50:09;100885.88;;;11.93;73.71
5812;BME280;2932;52.400;9.558;2023-02-19T04:52:34;100903.88;;;11.75;73.67
5812;BME280;2932;52.400;9.558;2023-02-19T04:54:59;100913.16;;;11.79;73.84
5812;BME280;2932;52.400;9.558;2023-02-19T04:57:25;100916.16;;;11.86;73.50
5812;BME280;2932;52.400;9.558;2023-02-19T04:59:50;100911.66;;;11.81;73.68
5812;BME280;2932;52.400;9.558;2023-02-19T05:02:15;100919.25;;;11.72;73.57
5812;BME280;2932;52.400;9.558;2023-02-19T05:04:41;100916.22;;;11.65;73.90
5812;BME280;2932;52.400;9.558;2023-02-19T05:07:07;100919.00;;;11.41;73.26
5812;BME280;2932;52.400;9.558;2023-02-19T05:09:32;100917.97;;;11.45;73.20
5812;BME280;2932;52.400;9.558;2023-02-19T05:11:57;100914.34;;;11.32;73.27
5812;BME280;2932;52.400;9.558;2023-02-19T05:14:23;100920.91;;;11.16;73.52
5812;BME280;2932;52.400;9.558;2023-02-19T05:16:48;100919.06;;;11.20;73.84
5812;BME280;2932;52.400;9.558;2023-02-19T05:19:14;100926.22;;;11.09;73.58
5812;BME280;2932;52.400;9.558;2023-02-19T05:21:39;100931.41;;;11.22;73.57
5812;BME280;2932;52.400;9.558;2023-02-19T05:24:05;100929.78;;;11.09;73.29
5812;BME280;2932;52.400;9.558;2023-02-19T05:26:31;100943.03;;;11.03;73.61
5812;BME280;2932;52.400;9.558;2023-02-19T05:28:56;100945.75;;;10.91;73.20
5812;BME280;2932;52.400;9.558;2023-02-19T05:31:22;100947.56;;;10.87;73.31
5812;BME280;2932;52.400;9.558;2023-02-19T05:33:47;100960.31;;;11.00;73.07
5812;BME280;2932;52.400;9.558;2023-02-19T05:36:15;100957.09;;;10.98;72.73
5812;BME280;2932;52.400;9.558;2023-02-19T05:38:40;100965.66;;;11.06;72.75
5812;BME280;2932;52.400;9.558;2023-02-19T05:43:32;100977.56;;;10.85;72.44
5812;BME280;2932;52.400;9.558;2023-02-19T05:45:57;100983.28;;;11.01;72.71
5812;BME280;2932;52.400;9.558;2023-02-19T05:48:23;100987.66;;;11.02;72.73
5812;BME280;2932;52.400;9.558;2023-02-19T05:50:48;100995.09;;;10.89;72.80
5812;BME280;2932;52.400;9.558;2023-02-19T05:53:13;101004.00;;;11.16;72.49
5812;BME280;2932;52.400;9.558;2023-02-19T05:55:39;101003.31;;;11.19;72.12
5812;BME280;2932;52.400;9.558;2023-02-19T05:58:04;101013.66;;;11.10;72.65
5812;BME280;2932;52.400;9.558;2023-02-19T06:00:31;101023.13;;;10.88;72.41
5812;BME280;2932;52.400;9.558;2023-02-19T06:02:57;101031.31;;;10.63;72.49
5812;BME280;2932;52.400;9.558;2023-02-19T06:05:22;101031.84;;;10.57;72.24
5812;BME280;2932;52.400;9.558;2023-02-19T06:07:47;101048.09;;;10.58;72.79
5812;BME280;2932;52.400;9.558;2023-02-19T06:10:15;101057.44;;;10.75;72.36
5812;BME280;2932;52.400;9.558;2023-02-19T06:12:40;101067.41;;;10.67;72.26
5812;BME280;2932;52.400;9.558;2023-02-19T06:15:06;101065.88;;;10.49;72.46
5812;BME280;2932;52.400;9.558;2023-02-19T06:17:32;101077.06;;;10.31;72.86
5812;BME280;2932;52.400;9.558;2023-02-19T06:19:58;101075.91;;;9.86;72.39
5812;BME280;2932;52.400;9.558;2023-02-19T06:22:23;101080.53;;;9.64;73.15
5812;BME280;2932;52.400;9.558;2023-02-19T06:24:49;101076.22;;;9.93;73.23
5812;BME280;2932;52.400;9.558;2023-02-19T06:27:14;101099.81;;;9.90;72.66
5812;BME280;2932;52.400;9.558;2023-02-19T06:29:40;101097.03;;;9.99;72.54
5812;BME280;2932;52.400;9.558;2023-02-19T06:32:05;101110.69;;;9.95;72.35
5812;BME280;2932;52.400;9.558;2023-02-19T06:34:31;101107.53;;;10.14;72.48
5812;BME280;2932;52.400;9.558;2023-02-19T06:36:57;101121.03;;;10.07;71.95
5812;BME280;2932;52.400;9.558;2023-02-19T06:39:23;101118.97;;;9.95;71.92
5812;BME280;2932;52.400;9.558;2023-02-19T06:41:48;101133.94;;;9.94;71.84
5812;BME280;2932;52.400;9.558;2023-02-19T06:44:14;101140.22;;;10.03;71.53
5812;BME280;2932;52.400;9.558;2023-02-19T06:46:39;101145.59;;;10.00;71.06
5812;BME280;2932;52.400;9.558;2023-02-19T06:49:05;101154.22;;;10.07;70.85
5812;BME280;2932;52.400;9.558;2023-02-19T06:51:30;101165.00;;;9.83;70.85
5812;BME280;2932;52.400;9.558;2023-02-19T06:53:57;101170.97;;;10.02;71.42
5812;BME280;2932;52.400;9.558;2023-02-19T06:58:50;101176.97;;;10.13;71.13
5812;BME280;2932;52.400;9.558;2023-02-19T07:01:16;101187.38;;;10.07;70.50
5812;BME280;2932;52.400;9.558;2023-02-19T07:03:41;101204.94;;;10.11;70.66
5812;BME280;2932;52.400;9.558;2023-02-19T07:06:07;101210.97;;;10.13;70.20
5812;BME280;2932;52.400;9.558;2023-02-19T07:08:32;101227.56;;;10.13;70.54
5812;BME280;2932;52.400;9.558;2023-02-19T07:10:58;101236.00;;;10.17;70.18
5812;BME280;2932;52.400;9.558;2023-02-19T07:13:25;101237.47;;;10.14;70.39
5812;BME280;2932;52.400;9.558;2023-02-19T07:15:51;101242.69;;;10.07;69.75
5812;BME280;2932;52.400;9.558;2023-02-19T07:18:16;101255.72;;;9.98;70.14
5812;BME280;2932;52.400;9.558;2023-02-19T07:20:41;101258.13;;;10.17;70.30
5812;BME280;2932;52.400;9.558;2023-02-19T07:23:07;101268.38;;;10.33;70.17
5812;BME280;2932;52.400;9.558;2023-02-19T07:25:32;101273.75;;;10.30;70.10
5812;BME280;2932;52.400;9.558;2023-02-19T07:27:57;101282.69;;;10.35;70.14
5812;BME280;2932;52.400;9.558;2023-02-19T07:30:23;101295.81;;;10.56;69.94
5812;BME280;2932;52.400;9.558;2023-02-19T07:32:48;101296.97;;;10.55;69.60
5812;BME280;2932;52.400;9.558;2023-02-19T07:35:14;101296.44;;;10.70;69.64
5812;BME280;2932;52.400;9.558;2023-02-19T07:37:39;101300.13;;;10.27;69.84
5812;BME280;2932;52.400;9.558;2023-02-19T07:40:05;101302.50;;;10.55;69.70
5812;BME280;2932;52.400;9.558;2023-02-19T07:42:31;101303.78;;;10.66;69.69
5812;BME280;2932;52.400;9.558;2023-02-19T07:44:56;101307.63;;;10.82;69.22
5812;BME280;2932;52.400;9.558;2023-02-19T07:47:21;101311.56;;;10.73;68.60
5812;BME280;2932;52.400;9.558;2023-02-19T07:49:47;101323.63;;;10.77;68.88
5812;BME280;2932;52.400;9.558;2023-02-19T07:52:12;101329.16;;;10.68;69.64
5812;BME280;2932;52.400;9.558;2023-02-19T07:54:37;101333.25;;;10.62;69.47
5812;BME280;2932;52.400;9.558;2023-02-19T07:57:03;101337.78;;;10.75;69.40
5812;BME280;2932;52.400;9.558;2023-02-19T07:59:28;101338.13;;;10.74;69.69
5812;BME280;2932;52.400;9.558;2023-02-19T08:01:53;101344.94;;;10.76;69.26
5812;BME280;2932;52.400;9.558;2023-02-19T08:04:37;101351.19;;;11.11;68.68
5812;BME280;2932;52.400;9.558;2023-02-19T08:07:03;101354.78;;;11.03;68.44
5812;BME280;2932;52.400;9.558;2023-02-19T08:09:29;101338.84;;;11.00;68.49
5812;BME280;2932;52.400;9.558;2023-02-19T08:11:55;101351.72;;;10.96;68.54
5812;BME280;2932;52.400;9.558;2023-02-19T08:14:38;101358.03;;;11.05;68.11
5812;BME280;2932;52.400;9.558;2023-02-19T08:17:04;101369.41;;;11.12;68.00
5812;BME280;2932;52.400;9.558;2023-02-19T08:19:29;101367.28;;;11.18;67.62
5812;BME280;2932;52.400;9.558;2023-02-19T08:21:54;101376.00;;;11.28;67.72
5812;BME280;2932;52.400;9.558;2023-02-19T08:24:20;101375.16;;;11.36;68.14
5812;BME280;2932;52.400;9.558;2023-02-19T08:26:45;101376.63;;;11.43;67.84
5812;BME280;2932;52.400;9.558;2023-02-19T08:29:10;101379.91;;;11.36;68.78
5812;BME280;2932;52.400;9.558;2023-02-19T08:31:36;101389.53;;;11.30;68.44
5812;BME280;2932;52.400;9.558;2023-02-19T08:34:01;101380.28;;;10.62;68.21
5812;BME280;2932;52.400;9.558;2023-02-19T08:36:26;101369.75;;;10.21;69.26
5812;BME280;2932;52.400;9.558;2023-02-19T08:38:52;101378.31;;;10.02;70.96
5812;BME280;2932;52.400;9.558;2023-02-19T08:41:17;101381.72;;;9.90;71.40
5812;BME280;2932;52.400;9.558;2023-02-19T08:43:43;101383.19;;;10.05;72.01
5812;BME280;2932;52.400;9.558;2023-02-19T08:46:09;101389.72;;;10.52;71.69
5812;BME280;2932;52.400;9.558;2023-02-19T08:48:35;101394.06;;;10.96;70.50
5812;BME280;2932;52.400;9.558;2023-02-19T08:51:03;101397.38;;;11.28;69.76
5812;BME280;2932;52.400;9.558;2023-02-19T08:53:31;101394.09;;;11.26;68.92
5812;BME280;2932;52.400;9.558;2023-02-19T08:55:57;101390.03;;;11.32;68.19
5812;BME280;2932;52.400;9.558;2023-02-19T08:58:22;101392.72;;;11.49;68.24
5812;BME280;2932;52.400;9.558;2023-02-19T09:00:50;101398.22;;;11.58;67.82
5812;BME280;2932;52.400;9.558;2023-02-19T09:03:16;101399.00;;;11.96;67.10
5812;BME280;2932;52.400;9.558;2023-02-19T09:05:41;101399.38;;;11.57;67.44
5812;BME280;2932;52.400;9.558;2023-02-19T09:08:07;101419.31;;;11.42;66.89
5812;BME280;2932;52.400;9.558;2023-02-19T09:10:33;101432.16;;;11.08;67.60
5812;BME280;2932;52.400;9.558;2023-02-19T09:12:58;101428.09;;;11.06;67.46
5812;BME280;2932;52.400;9.558;2023-02-19T09:15:23;101446.09;;;11.20;67.55
5812;BME280;2932;52.400;9.558;2023-02-19T09:17:52;101448.31;;;11.91;66.90
5812;BME280;2932;52.400;9.558;2023-02-19T09:20:17;101447.69;;;12.35;66.31
5812;BME280;2932;52.400;9.558;2023-02-19T09:22:43;101448.75;;;12.64;65.52
5812;BME280;2932;52.400;9.558;2023-02-19T09:25:08;101442.94;;;12.36;64.37
5812;BME280;2932;52.400;9.558;2023-02-19T09:27:33;101459.31;;;12.50;64.23
5812;BME280;2932;52.400;9.558;2023-02-19T09:29:59;101456.34;;;12.55;63.88
5812;BME280;2932;52.400;9.558;2023-02-19T09:32:24;101453.56;;;12.76;64.16
5812;BME280;2932;52.400;9.558;2023-02-19T09:34:50;101454.41;;;12.88;63.35
5812;BME280;2932;52.400;9.558;2023-02-19T09:37:15;101455.25;;;12.47;62.29
5812;BME280;2932;52.400;9.558;2023-02-19T09:39:40;101468.75;;;12.37;63.87
5812;BME280;2932;52.400;9.558;2023-02-19T09:42:18;101467.91;;;12.57;64.28
5812;BME280;2932;52.400;9.558;2023-02-19T09:44:47;101475.94;;;12.91;63.99
5812;BME280;2932;52.400;9.558;2023-02-19T09:47:25;101477.69;;;13.17;63.38
5812;BME280;2932;52.400;9.558;2023-02-19T09:49:58;101472.50;;;13.27;62.76
5812;BME280;2932;52.400;9.558;2023-02-19T09:52:32;101475.31;;;12.74;62.41
5812;BME280;2932;52.400;9.558;2023-02-19T09:57:43;101489.72;;;13.54;62.86
5812;BME280;2932;52.400;9.558;2023-02-19T10:00:25;101495.16;;;13.62;62.38
5812;BME280;2932;52.400;9.558;2023-02-19T10:02:53;101528.81;;;14.18;60.78
5812;BME280;2932;52.400;9.558;2023-02-19T10:05:20;101541.44;;;14.52;60.40
5812;BME280;2932;52.400;9.558;2023-02-19T10:07:48;101529.84;;;14.50;59.72
5812;BME280;2932;52.400;9.558;2023-02-19T10:12:49;101531.34;;;14.60;59.20
5812;BME280;2932;52.400;9.558;2023-02-19T10:15:32;101542.13;;;14.61;58.87
5812;BME280;2932;52.400;9.558;2023-02-19T10:18:01;101556.88;;;14.62;58.85
5812;BME280;2932;52.400;9.558;2023-02-19T10:20:27;101573.34;;;14.30;59.17
5812;BME280;2932;52.400;9.558;2023-02-19T10:25:23;101577.00;;;13.86;59.58
5812;BME280;2932;52.400;9.558;2023-02-19T10:27:48;101579.16;;;13.56;59.89
5812;BME280;2932;52.400;9.558;2023-02-19T10:30:20;101580.25;;;13.43;59.43
5812;BME280;2932;52.400;9.558;2023-02-19T10:33:07;101601.81;;;13.46;60.69
5812;BME280;2932;52.400;9.558;2023-02-19T10:35:36;101601.72;;;13.87;60.27
5812;BME280;2932;52.400;9.558;2023-02-19T10:38:03;101590.81;;;13.49;59.83
5812;BME280;2932;52.400;9.558;2023-02-19T10:40:31;101601.81;;;13.79;60.51
5812;BME280;2932;52.400;9.558;2023-02-19T10:43:02;101608.34;;;14.07;60.20
5812;BME280;2932;52.400;9.558;2023-02-19T10:45:33;101605.91;;;14.18;59.68
5812;BME280;2932;52.400;9.558;2023-02-19T10:48:02;101600.94;;;13.99;58.34
5812;BME280;2932;52.400;9.558;2023-02-19T10:50:29;101600.47;;;13.97;58.07
5812;BME280;2932;52.400;9.558;2023-02-19T10:52:57;101593.06;;;13.68;59.31
5812;BME280;2932;52.400;9.558;2023-02-19T10:55:33;101592.66;;;13.45;60.31
5812;BME280;2932;52.400;9.558;2023-02-19T10:58:22;101600.66;;;13.80;60.56
5812;BME280;2932;52.400;9.558;2023-02-19T11:01:17;101599.97;;;15.05;59.00
5812;BME280;2932;52.400;9.558;2023-02-19T11:03:51;101585.38;;;15.51;57.05
5812;BME280;2932;52.400;9.558;2023-02-19T11:06:24;101591.22;;;16.06;55.93
5812;BME280;2932;52.400;9.558;2023-02-19T11:08:56;101597.03;;;15.13;54.44
5812;BME280;2932;52.400;9.558;2023-02-19T11:13:54;101604.00;;;15.47;56.33
5812;BME280;2932;52.400;9.558;2023-02-19T11:16:21;101606.81;;;15.35;56.27
5812;BME280;2932;52.400;9.558;2023-02-19T11:18:54;101608.78;;;15.07;56.15
5812;BME280;2932;52.400;9.558;2023-02-19T11:21:26;101619.59;;;14.96;56.64
5812;BME280;2932;52.400;9.558;2023-02-19T11:23:57;101632.06;;;14.62;57.02
5812;BME280;2932;52.400;9.558;2023-02-19T11:26:25;101638.28;;;13.44;58.84
5812;BME280;2932;52.400;9.558;2023-02-19T11:29:00;101633.56;;;14.35;59.51
5812;BME280;2932;52.400;9.558;2023-02-19T11:31:35;101627.97;;;15.36;57.39
5812;BME280;2932;52.400;9.558;2023-02-19T11:36:39;101624.91;;;17.11;52.53
5812;BME280;2932;52.400;9.558;2023-02-19T12:06:27;101615.78;;;19.19;45.03
5812;BME280;2932;52.400;9.558;2023-02-19T12:28:48;101601.19;;;26.95;36.24
5812;BME280;2932;52.400;9.558;2023-02-19T12:31:23;101615.00;;;26.50;35.55
5812;BME280;2932;52.400;9.558;2023-02-19T12:39:48;101643.94;;;25.87;35.68
5812;BME280;2932;52.400;9.558;2023-02-19T12:44:58;101631.34;;;26.15;35.60
5812;BME280;2932;52.400;9.558;2023-02-19T12:47:37;101625.91;;;27.77;34.25
5812;BME280;2932;52.400;9.558;2023-02-19T12:50:25;101626.50;;;29.44;32.25
5812;BME280;2932;52.400;9.558;2023-02-19T12:53:01;101641.25;;;29.68;31.73
5812;BME280;2932;52.400;9.558;2023-02-19T12:55:34;101645.41;;;28.31;32.60
5812;BME280;2932;52.400;9.558;2023-02-19T12:58:04;101644.22;;;27.56;32.37
5812;BME280;2932;52.400;9.558;2023-02-19T13:00:46;101645.59;;;27.09;33.47
5812;BME280;2932;52.400;9.558;2023-02-19T13:04:21;101643.66;;;28.17;33.03
5812;BME280;2932;52.400;9.558;2023-02-19T13:08:47;101652.34;;;25.64;33.54
5812;BME280;2932;52.400;9.558;2023-02-19T13:11:19;101654.16;;;26.08;34.46
5812;BME280;2932;52.400;9.558;2023-02-19T13:13:53;101651.91;;;26.73;33.09
5812;BME280;2932;52.400;9.558;2023-02-19T13:16:21;101657.25;;;27.34;32.83
5812;BME280;2932;52.400;9.558;2023-02-19T13:21:16;101668.31;;;26.62;32.39
5812;BME280;2932;52.400;9.558;2023-02-19T13:24:07;101676.44;;;24.08;35.30
5812;BME280;2932;52.400;9.558;2023-02-19T13:37:17;101650.28;;;21.23;39.87
5812;BME280;2932;52.400;9.558;2023-02-19T13:39:51;101636.75;;;23.56;37.72
5812;BME280;2932;52.400;9.558;2023-02-19T13:42:33;101631.50;;;25.47;34.97
5812;BME280;2932;52.400;9.558;2023-02-19T13:45:01;101627.69;;;25.91;34.00
5812;BME280;2932;52.400;9.558;2023-02-19T13:47:47;101628.50;;;22.24;37.22
5812;BME280;2932;52.400;9.558;2023-02-19T13:50:20;101635.78;;;21.17;38.99
5812;BME280;2932;52.400;9.558;2023-02-19T13:52:45;101626.47;;;22.53;38.41
5812;BME280;2932;52.400;9.558;2023-02-19T13:58:53;101632.72;;;19.53;39.95
5812;BME280;2932;52.400;9.558;2023-02-19T14:04:24;101634.63;;;18.89;42.52
5812;BME280;2932;52.400;9.558;2023-02-19T14:14:49;101645.75;;;15.72;46.81
5812;BME280;2932;52.400;9.558;2023-02-19T14:17:37;101653.16;;;14.87;47.77
5812;BME280;2932;52.400;9.558;2023-02-19T14:23:16;101651.28;;;15.99;47.57
5812;BME280;2932;52.400;9.558;2023-02-19T14:25:51;101649.75;;;14.21;49.06
5812;BME280;2932;52.400;9.558;2023-02-19T14:30:55;101652.13;;;13.32;51.25
5812;BME280;2932;52.400;9.558;2023-02-19T14:33:27;101647.25;;;13.83;53.42
5812;BME280;2932;52.400;9.558;2023-02-19T14:36:02;101652.47;;;14.42;53.75
5812;BME280;2932;52.400;9.558;2023-02-19T14:38:59;101663.28;;;14.55;51.75
5812;BME280;2932;52.400;9.558;2023-02-19T14:41:23;101661.78;;;14.70;50.74
5812;BME280;2932;52.400;9.558;2023-02-19T14:43:51;101674.91;;;15.34;51.02
5812;BME280;2932;52.400;9.558;2023-02-19T14:46:36;101676.09;;;16.48;49.38
5812;BME280;2932;52.400;9.558;2023-02-19T14:49:16;101670.06;;;17.48;47.06
5812;BME280;2932;52.400;9.558;2023-02-19T14:51:49;101663.28;;;19.61;43.39
5812;BME280;2932;52.400;9.558;2023-02-19T14:54:26;101643.78;;;19.76;41.67
5812;BME280;2932;52.400;9.558;2023-02-19T14:56:56;101629.16;;;19.56;42.10
5812;BME280;2932;52.400;9.558;2023-02-19T14:59:26;101642.09;;;20.05;42.29
5812;BME280;2932;52.400;9.558;2023-02-19T15:02:02;101649.16;;;17.42;45.45
5812;BME280;2932;52.400;9.558;2023-02-19T15:04:33;101649.56;;;17.63;45.09
5812;BME280;2932;52.400;9.558;2023-02-19T15:07:02;101644.94;;;18.58;44.12
5812;BME280;2932;52.400;9.558;2023-02-19T15:09:43;101640.00;;;19.57;41.88
5812;BME280;2932;52.400;9.558;2023-02-19T15:12:22;101633.47;;;17.76;44.72
5812;BME280;2932;52.400;9.558;2023-02-19T15:14:52;101633.31;;;16.76;46.63
5812;BME280;2932;52.400;9.558;2023-02-19T15:17:30;101623.44;;;17.75;46.29
5812;BME280;2932;52.400;9.558;2023-02-19T15:19:59;101616.34;;;19.58;42.39
5812;BME280;2932;52.400;9.558;2023-02-19T15:22:28;101616.44;;;21.12;40.09
5812;BME280;2932;52.400;9.558;2023-02-19T15:25:04;101611.97;;;22.12;38.54
5812;BME280;2932;52.400;9.558;2023-02-19T15:27:30;101626.06;;;22.69;37.88
5812;BME280;2932;52.400;9.558;2023-02-19T15:29:57;101629.34;;;23.83;36.75
5812;BME280;2932;52.400;9.558;2023-02-19T15:32:24;101627.53;;;23.27;36.77
5812;BME280;2932;52.400;9.558;2023-02-19T15:34:58;101637.53;;;21.43;37.91
5812;BME280;2932;52.400;9.558;2023-02-19T15:37:26;101635.28;;;19.69;41.61
5812;BME280;2932;52.400;9.558;2023-02-19T15:39:52;101640.47;;;17.85;43.59
5812;BME280;2932;52.400;9.558;2023-02-19T15:42:27;101639.81;;;17.73;43.58